Time;durP1;ratioP1;P1;durP2;ratioP2;P2;SDS_P1;SDS_P2;PMS_P1;PMS_P2;Temp;Humidity;BMP_temperature;BMP_pressure;BME280_temperature;BME280_humidity;BME280_pressure;Samples;Min_cycle;Max_cycle;Signal;HPM_P1;HPM_P2
2021/12/08 00:02:14;;;;;;;94.55;37.38;;;;;;;;;;5032221;28;20497;-74
2021/12/08 00:04:40;;;;;;;96.40;39.45;;;;;;;;;;5033337;28;20029;-74
2021/12/08 00:07:07;;;;;;;87.03;35.65;;;;;;;;;;5033535;28;20395;-73
2021/12/08 00:14:55;;;;;;;93.15;36.65;;;;;;;;;;5033412;28;20083;-73
2021/12/08 00:17:21;;;;;;;91.78;36.33;;;;;;;;;;5033149;28;20108;-74
2021/12/08 00:19:47;;;;;;;96.20;38.78;;;;;;;;;;5033391;28;20032;-74
2021/12/08 00:22:13;;;;;;;93.15;36.95;;;;;;;;;;5032114;28;20316;-75
2021/12/08 00:24:39;;;;;;;98.60;39.10;;;;;;;;;;5033171;28;20104;-75
2021/12/08 00:27:06;;;;;;;97.22;39.60;;;;;;;;;;5032860;28;20124;-74
2021/12/08 00:29:32;;;;;;;86.03;37.47;;;;;;;;;;5032903;28;20060;-75
2021/12/08 00:31:58;;;;;;;97.38;37.97;;;;;;;;;;5032855;28;20033;-74
2021/12/08 00:34:24;;;;;;;88.55;37.80;;;;;;;;;;5033021;28;20036;-74
2021/12/08 00:36:55;;;;;;;97.05;38.42;;;;;;;;;;5031735;28;20546;-73
2021/12/08 00:39:21;;;;;;;104.68;41.28;;;;;;;;;;5031456;28;20040;-74
2021/12/08 00:41:47;;;;;;;109.43;43.45;;;;;;;;;;5032750;28;20022;-74
2021/12/08 00:44:13;;;;;;;113.13;41.92;;;;;;;;;;5032456;28;20033;-74
2021/12/08 00:46:39;;;;;;;105.18;42.60;;;;;;;;;;5032625;28;20040;-74
2021/12/08 00:49:05;;;;;;;114.82;44.95;;;;;;;;;;5032096;28;20053;-74
2021/12/08 00:51:31;;;;;;;112.70;44.67;;;;;;;;;;5032411;28;20394;-74
2021/12/08 00:53:57;;;;;;;123.40;47.80;;;;;;;;;;5032692;28;20025;-74
2021/12/08 00:56:23;;;;;;;117.45;45.97;;;;;;;;;;5032507;28;20029;-74
2021/12/08 00:58:50;;;;;;;111.18;43.13;;;;;;;;;;5029115;28;20038;-73
2021/12/08 01:01:16;;;;;;;102.32;42.13;;;;;;;;;;5032147;28;20482;-73
2021/12/08 01:03:42;;;;;;;95.22;41.05;;;;;;;;;;5030962;28;20033;-74
2021/12/08 01:06:08;;;;;;;99.90;41.25;;;;;;;;;;5031033;28;20041;-74
2021/12/08 01:08:34;;;;;;;97.18;40.85;;;;;;;;;;5032106;28;20037;-74
2021/12/08 01:11:11;;;;;;;97.10;39.47;;;;;;;;;;5030914;28;20076;-74
2021/12/08 01:13:37;;;;;;;94.03;42.20;;;;;;;;;;5031941;28;20026;-74
2021/12/08 01:16:03;;;;;;;98.10;41.00;;;;;;;;;;5032325;28;20128;-74
2021/12/08 01:18:30;;;;;;;98.60;42.00;;;;;;;;;;5030833;28;20176;-74
2021/12/08 01:20:58;;;;;;;93.00;39.15;;;;;;;;;;5032108;28;20018;-74
2021/12/08 01:23:24;;;;;;;94.40;40.95;;;;;;;;;;5031867;28;20095;-75
2021/12/08 01:25:50;;;;;;;97.05;39.92;;;;;;;;;;5031957;28;20108;-74
2021/12/08 01:28:19;;;;;;;90.28;39.90;;;;;;;;;;5031738;28;20112;-73
2021/12/08 01:30:46;;;;;;;86.63;38.85;;;;;;;;;;5032023;28;20033;-74
2021/12/08 01:33:12;;;;;;;89.82;40.17;;;;;;;;;;5031659;28;20029;-74
2021/12/08 01:35:38;;;;;;;80.85;38.97;;;;;;;;;;5031925;28;20108;-74
2021/12/08 01:38:04;;;;;;;86.50;38.95;;;;;;;;;;5031948;28;20108;-74
2021/12/08 01:40:30;;;;;;;86.40;39.38;;;;;;;;;;5031931;28;20033;-74
2021/12/08 01:42:58;;;;;;;80.72;37.75;;;;;;;;;;5031517;28;20092;-74
2021/12/08 01:48:12;;;;;;;81.70;36.20;;;;;;;;;;5031930;28;20505;-75
2021/12/08 01:50:38;;;;;;;76.13;37.25;;;;;;;;;;5031861;28;20025;-75
2021/12/08 01:53:05;;;;;;;75.95;37.72;;;;;;;;;;5031932;28;20079;-75
2021/12/08 01:55:31;;;;;;;73.95;33.65;;;;;;;;;;5031836;28;20108;-75
2021/12/08 01:57:57;;;;;;;81.30;37.13;;;;;;;;;;5031574;28;20450;-75
2021/12/08 02:00:29;;;;;;;73.47;37.60;;;;;;;;;;5031788;28;20033;-73
2021/12/08 02:02:55;;;;;;;69.75;34.60;;;;;;;;;;5035582;28;20091;-73
2021/12/08 02:05:21;;;;;;;71.75;35.60;;;;;;;;;;5034404;28;20486;-75
2021/12/08 02:07:47;;;;;;;78.53;35.97;;;;;;;;;;5035276;28;20076;-75
2021/12/08 02:10:14;;;;;;;71.65;34.97;;;;;;;;;;5035835;28;20155;-72
2021/12/08 02:12:41;;;;;;;68.40;34.50;;;;;;;;;;5034190;28;20028;-73
2021/12/08 02:15:08;;;;;;;69.97;34.47;;;;;;;;;;5035633;28;20029;-73
2021/12/08 02:17:34;;;;;;;73.75;36.45;;;;;;;;;;5035418;28;20026;-72
2021/12/08 02:20:02;;;;;;;72.70;36.15;;;;;;;;;;5035513;28;20029;-72
2021/12/08 02:22:28;;;;;;;76.15;37.15;;;;;;;;;;5035327;28;20033;-73
2021/12/08 02:24:54;;;;;;;66.93;33.63;;;;;;;;;;5035325;28;20026;-72
2021/12/08 02:27:20;;;;;;;77.15;37.45;;;;;;;;;;5035170;28;20471;-72
2021/12/08 02:29:53;;;;;;;72.70;38.35;;;;;;;;;;5035172;28;20021;-73
2021/12/08 02:48:29;;;;;;;66.03;34.28;;;;;;;;;;5015307;28;20092;-74
2021/12/08 02:50:56;;;;;;;68.63;34.55;;;;;;;;;;5016708;28;20080;-74
2021/12/08 02:53:22;;;;;;;68.90;37.28;;;;;;;;;;5015166;28;20032;-74
2021/12/08 02:55:48;;;;;;;66.65;34.13;;;;;;;;;;5015970;28;20022;-73
2021/12/08 02:58:15;;;;;;;63.50;33.65;;;;;;;;;;5014739;28;20037;-73
2021/12/08 03:00:50;;;;;;;63.80;35.38;;;;;;;;;;5014789;28;20403;-73
2021/12/08 03:03:16;;;;;;;69.00;34.42;;;;;;;;;;5014496;28;20030;-73
2021/12/08 03:05:42;;;;;;;65.88;34.13;;;;;;;;;;5014882;28;20049;-73
2021/12/08 03:08:09;;;;;;;61.50;33.10;;;;;;;;;;5013173;28;20476;-74
2021/12/08 03:10:39;;;;;;;61.97;31.77;;;;;;;;;;5015188;28;20030;-74
2021/12/08 03:13:05;;;;;;;61.95;32.85;;;;;;;;;;5012936;28;20088;-74
2021/12/08 03:15:31;;;;;;;62.60;32.97;;;;;;;;;;5017330;28;20022;-74
2021/12/08 03:17:57;;;;;;;64.57;33.25;;;;;;;;;;5019087;28;20084;-73
2021/12/08 03:20:38;;;;;;;66.35;33.67;;;;;;;;;;5015519;28;20034;-73
2021/12/08 03:23:05;;;;;;;69.25;35.00;;;;;;;;;;5016584;28;20038;-73
2021/12/08 03:25:36;;;;;;;56.63;32.20;;;;;;;;;;5013461;28;20030;-74
2021/12/08 03:28:24;;;;;;;54.30;30.80;;;;;;;;;;5014236;28;20451;-74
2021/12/08 03:30:58;;;;;;;63.03;34.42;;;;;;;;;;5014454;28;20022;-74
2021/12/08 03:33:24;;;;;;;57.72;32.00;;;;;;;;;;5012640;28;20475;-74
2021/12/08 03:35:50;;;;;;;58.38;31.58;;;;;;;;;;5012927;28;20021;-73
2021/12/08 03:38:17;;;;;;;58.40;29.95;;;;;;;;;;5014231;28;20033;-74
2021/12/08 03:40:43;;;;;;;56.00;29.77;;;;;;;;;;5012893;28;20022;-73
2021/12/08 03:43:09;;;;;;;52.03;28.88;;;;;;;;;;5013921;28;20030;-74
2021/12/08 03:45:37;;;;;;;50.10;27.73;;;;;;;;;;5013970;28;20109;-74
2021/12/08 03:48:09;;;;;;;49.60;28.15;;;;;;;;;;5013648;28;20041;-73
2021/12/08 03:50:37;;;;;;;48.53;26.25;;;;;;;;;;5013734;28;20026;-73
2021/12/08 03:53:03;;;;;;;53.13;27.35;;;;;;;;;;5013781;28;20026;-73
2021/12/08 03:55:29;;;;;;;47.30;26.38;;;;;;;;;;5013752;28;20482;-73
2021/12/08 03:57:55;;;;;;;45.22;25.88;;;;;;;;;;5013696;28;20038;-72
2021/12/08 04:00:23;;;;;;;43.60;25.52;;;;;;;;;;5012318;28;20141;-73
2021/12/08 04:02:50;;;;;;;46.67;25.50;;;;;;;;;;5013536;28;20033;-73
2021/12/08 04:05:19;;;;;;;49.35;26.30;;;;;;;;;;5013569;28;20056;-73
2021/12/08 04:07:46;;;;;;;42.90;25.05;;;;;;;;;;5011989;28;20054;-73
2021/12/08 04:10:18;;;;;;;42.30;25.63;;;;;;;;;;5013461;28;20036;-73
2021/12/08 04:12:46;;;;;;;44.42;24.25;;;;;;;;;;5013220;28;20372;-71
2021/12/08 04:15:13;;;;;;;44.17;24.20;;;;;;;;;;5013494;28;20080;-73
2021/12/08 04:17:43;;;;;;;43.13;24.67;;;;;;;;;;5011908;28;20036;-75
2021/12/08 04:20:13;;;;;;;46.15;24.67;;;;;;;;;;5013638;28;20022;-73
2021/12/08 04:22:41;;;;;;;40.25;23.05;;;;;;;;;;5013342;28;20036;-72
2021/12/08 04:25:12;;;;;;;38.92;23.60;;;;;;;;;;5013226;28;20041;-75
2021/12/08 04:27:39;;;;;;;43.10;23.60;;;;;;;;;;5013036;28;20113;-74
2021/12/08 04:30:08;;;;;;;41.15;23.45;;;;;;;;;;5013325;28;20052;-73
2021/12/08 04:32:35;;;;;;;44.15;24.20;;;;;;;;;;5013241;28;20022;-73
2021/12/08 04:35:02;;;;;;;37.67;22.65;;;;;;;;;;5012882;28;20104;-73
2021/12/08 04:37:33;;;;;;;38.15;22.00;;;;;;;;;;5012839;28;20033;-73
2021/12/08 04:40:20;;;;;;;36.45;22.33;;;;;;;;;;5012924;28;20041;-73
2021/12/08 04:43:15;;;;;;;38.28;23.02;;;;;;;;;;5012704;28;20027;-73
2021/12/08 04:45:44;;;;;;;38.35;22.85;;;;;;;;;;5012405;28;20559;-74
2021/12/08 04:48:40;;;;;;;37.42;22.95;;;;;;;;;;5012514;28;20068;-73
2021/12/08 04:54:03;;;;;;;37.47;22.00;;;;;;;;;;5012479;28;20031;-73
2021/12/08 05:05:02;;;;;;;32.65;19.25;;;;;;;;;;5012339;28;20034;-73
2021/12/08 05:09:54;;;;;;;32.22;19.02;;;;;;;;;;5012272;28;20495;-74
2021/12/08 05:12:22;;;;;;;34.45;19.45;;;;;;;;;;5012406;28;20033;-74
2021/12/08 05:14:50;;;;;;;33.42;21.10;;;;;;;;;;5012303;28;20029;-72
2021/12/08 05:17:18;;;;;;;37.47;20.95;;;;;;;;;;5012349;28;20026;-74
2021/12/08 05:19:46;;;;;;;35.92;20.48;;;;;;;;;;5012095;28;20100;-73
2021/12/08 05:22:15;;;;;;;38.78;22.85;;;;;;;;;;5012502;28;20061;-74
2021/12/08 05:24:44;;;;;;;36.72;20.40;;;;;;;;;;5012091;28;20022;-74
2021/12/08 05:27:30;;;;;;;36.10;20.23;;;;;;;;;;5012106;28;20096;-74
2021/12/08 05:29:59;;;;;;;37.28;21.88;;;;;;;;;;5012039;28;20503;-74
2021/12/08 05:32:25;;;;;;;36.67;20.83;;;;;;;;;;5012274;28;20112;-74
2021/12/08 05:34:52;;;;;;;32.00;20.08;;;;;;;;;;5011682;28;20101;-74
2021/12/08 05:37:19;;;;;;;35.03;19.42;;;;;;;;;;5010252;28;20034;-74
2021/12/08 05:39:45;;;;;;;33.63;20.00;;;;;;;;;;5012075;28;20061;-74
2021/12/08 05:42:16;;;;;;;35.40;20.90;;;;;;;;;;5010829;28;20030;-74
2021/12/08 05:44:42;;;;;;;;;;;;;;;;;;5012267;28;20038;-74
2021/12/08 05:47:11;;;;;;;30.05;18.17;;;;;;;;;;5011921;28;20004;-74
2021/12/08 05:49:37;;;;;;;30.85;18.60;;;;;;;;;;5011642;28;20112;-73
2021/12/08 05:52:03;;;;;;;34.47;19.27;;;;;;;;;;5011942;28;20091;-73
2021/12/08 05:54:32;;;;;;;35.53;21.05;;;;;;;;;;5012166;28;20468;-73
2021/12/08 05:57:00;;;;;;;30.58;19.35;;;;;;;;;;5010660;28;20037;-73
2021/12/08 05:59:26;;;;;;;32.53;18.98;;;;;;;;;;5011651;28;20367;-73
2021/12/08 06:01:54;;;;;;;35.65;20.55;;;;;;;;;;5011978;28;20044;-73
2021/12/08 06:04:21;;;;;;;38.65;20.27;;;;;;;;;;5011497;28;20490;-73
2021/12/08 06:06:49;;;;;;;32.63;18.42;;;;;;;;;;5011824;28;20030;-74
2021/12/08 06:09:16;;;;;;;34.63;19.10;;;;;;;;;;5010044;28;20038;-74
2021/12/08 06:11:44;;;;;;;36.60;18.60;;;;;;;;;;5011534;28;20041;-74
2021/12/08 06:14:11;;;;;;;36.90;20.38;;;;;;;;;;5011407;28;20026;-73
2021/12/08 06:16:39;;;;;;;37.25;19.50;;;;;;;;;;5010224;28;20077;-73
2021/12/08 06:19:07;;;;;;;44.38;20.63;;;;;;;;;;5011107;28;20435;-73
2021/12/08 06:21:33;;;;;;;37.67;19.38;;;;;;;;;;5011507;28;20041;-74
2021/12/08 06:24:00;;;;;;;38.08;21.85;;;;;;;;;;5010946;28;20106;-74
2021/12/08 06:26:27;;;;;;;35.45;20.13;;;;;;;;;;5011274;28;20403;-74
2021/12/08 06:28:54;;;;;;;37.03;20.05;;;;;;;;;;5010003;28;20128;-73
2021/12/08 06:31:21;;;;;;;33.20;19.02;;;;;;;;;;5011355;28;20033;-73
2021/12/08 06:33:47;;;;;;;40.35;20.98;;;;;;;;;;5009958;28;20037;-74
2021/12/08 06:36:15;;;;;;;42.53;20.77;;;;;;;;;;5011617;28;20030;-73
2021/12/08 06:38:42;;;;;;;36.05;20.45;;;;;;;;;;5009633;28;20026;-73
2021/12/08 06:41:14;;;;;;;39.40;20.17;;;;;;;;;;5011181;28;20101;-73
2021/12/08 06:43:42;;;;;;;35.70;19.98;;;;;;;;;;5011228;28;20030;-74
2021/12/08 06:46:08;;;;;;;36.63;20.23;;;;;;;;;;5013611;28;20395;-75
2021/12/08 06:48:39;;;;;;;37.25;20.13;;;;;;;;;;5014497;28;20037;-75
2021/12/08 06:51:10;;;;;;;33.92;16.35;;;;;;;;;;5015047;28;20130;-74
2021/12/08 06:53:36;;;;;;;38.50;20.33;;;;;;;;;;5013409;28;20022;-75
2021/12/08 06:56:05;;;;;;;36.85;20.38;;;;;;;;;;5014768;28;20133;-75
2021/12/08 06:58:34;;;;;;;36.53;19.98;;;;;;;;;;5013594;28;20164;-73
2021/12/08 07:03:48;;;;;;;36.85;20.08;;;;;;;;;;5032309;28;20037;-75
2021/12/08 07:09:06;;;;;;;37.30;19.00;;;;;;;;;;5021701;28;20092;-74
2021/12/08 07:11:32;;;;;;;36.42;19.25;;;;;;;;;;5032274;28;20061;-75
2021/12/08 07:13:58;;;;;;;38.55;20.70;;;;;;;;;;5014142;28;20476;-76
2021/12/08 07:16:26;;;;;;;39.70;19.90;;;;;;;;;;5014044;28;20026;-75
2021/12/08 07:19:00;;;;;;;38.20;20.67;;;;;;;;;;5013452;28;20029;-73
2021/12/08 07:21:29;;;;;;;36.42;19.90;;;;;;;;;;5031344;28;20036;-76
2021/12/08 07:24:01;;;;;;;34.05;18.83;;;;;;;;;;5033739;28;20028;-76
2021/12/08 07:26:28;;;;;;;34.17;19.42;;;;;;;;;;5034091;28;20033;-75
2021/12/08 07:28:55;;;;;;;32.00;18.38;;;;;;;;;;5027306;28;20026;-76
2021/12/08 07:31:27;;;;;;;37.03;20.55;;;;;;;;;;5014451;28;20387;-76
2021/12/08 07:33:53;;;;;;;34.65;17.90;;;;;;;;;;5012290;28;20128;-76
2021/12/08 07:36:20;;;;;;;30.73;17.05;;;;;;;;;;5013410;28;20132;-75
2021/12/08 07:38:49;;;;;;;30.05;17.65;;;;;;;;;;5025716;28;20017;-75
2021/12/08 07:41:20;;;;;;;31.58;17.35;;;;;;;;;;5033707;28;20032;-76
2021/12/08 07:43:49;;;;;;;31.25;17.92;;;;;;;;;;5032961;28;20052;-77
2021/12/08 07:46:25;;;;;;;29.70;17.90;;;;;;;;;;5033072;28;20386;-75
2021/12/08 07:48:53;;;;;;;34.13;18.77;;;;;;;;;;5031566;28;20021;-74
2021/12/08 07:51:27;;;;;;;31.73;17.35;;;;;;;;;;5033218;28;20029;-76
2021/12/08 07:53:53;;;;;;;32.28;18.02;;;;;;;;;;5032720;28;20029;-75
2021/12/08 07:56:20;;;;;;;30.65;18.85;;;;;;;;;;5032507;28;20426;-76
2021/12/08 07:58:50;;;;;;;31.90;17.83;;;;;;;;;;5032396;28;20037;-76
2021/12/08 08:01:19;;;;;;;31.00;17.23;;;;;;;;;;5032401;28;20021;-76
2021/12/08 08:03:45;;;;;;;30.25;17.17;;;;;;;;;;5033092;28;20022;-76
2021/12/08 08:06:15;;;;;;;28.00;15.98;;;;;;;;;;5031364;28;20025;-75
2021/12/08 08:08:41;;;;;;;29.02;17.13;;;;;;;;;;5031649;28;20033;-76
2021/12/08 08:11:10;;;;;;;27.80;15.80;;;;;;;;;;5030227;28;20494;-74
2021/12/08 08:13:36;;;;;;;25.77;15.63;;;;;;;;;;5031747;28;20449;-76
2021/12/08 08:16:05;;;;;;;27.85;16.85;;;;;;;;;;5031832;28;20029;-76
2021/12/08 08:18:36;;;;;;;28.67;15.80;;;;;;;;;;5031857;28;20116;-75
2021/12/08 08:21:06;;;;;;;25.05;15.00;;;;;;;;;;5033025;28;20037;-76
2021/12/08 08:23:32;;;;;;;23.30;14.30;;;;;;;;;;5032749;28;20479;-76
2021/12/08 08:26:01;;;;;;;29.40;15.48;;;;;;;;;;5032906;28;20035;-76
2021/12/08 08:28:27;;;;;;;23.42;14.40;;;;;;;;;;5031007;28;20083;-76
2021/12/08 08:31:02;;;;;;;20.85;13.57;;;;;;;;;;5033305;28;20035;-77
2021/12/08 08:33:30;;;;;;;23.73;14.80;;;;;;;;;;5032347;28;20079;-77
2021/12/08 08:35:58;;;;;;;23.95;14.55;;;;;;;;;;5032936;28;20095;-77
2021/12/08 08:38:30;;;;;;;31.00;14.35;;;;;;;;;;5032374;28;20037;-76
2021/12/08 08:41:16;;;;;;;22.70;14.35;;;;;;;;;;5032926;28;20025;-75
2021/12/08 08:43:42;;;;;;;21.50;12.43;;;;;;;;;;5032311;28;20479;-75
2021/12/08 08:46:10;;;;;;;22.38;14.10;;;;;;;;;;5028978;28;20033;-75
2021/12/08 08:48:40;;;;;;;28.60;15.98;;;;;;;;;;5023874;28;20032;-76
2021/12/08 08:51:12;;;;;;;21.40;14.27;;;;;;;;;;5032412;28;20479;-76
2021/12/08 08:53:40;;;;;;;25.77;14.85;;;;;;;;;;5030998;28;20438;-76
2021/12/08 08:56:12;;;;;;;22.95;13.85;;;;;;;;;;5044422;22;20076;-69
2021/12/08 08:58:39;;;;;;;39.53;14.73;;;;;;;;;;5029020;28;20033;-69
2021/12/08 09:01:07;;;;;;;23.77;14.80;;;;;;;;;;5029209;28;20045;-70
2021/12/08 09:03:35;;;;;;;20.10;12.50;;;;;;;;;;5029189;28;20468;-69
2021/12/08 09:06:04;;;;;;;22.63;13.98;;;;;;;;;;5030349;28;20021;-69
2021/12/08 09:08:31;;;;;;;24.77;13.32;;;;;;;;;;5030248;28;20033;-70
2021/12/08 09:10:57;;;;;;;26.40;14.35;;;;;;;;;;5029644;28;20368;-70
2021/12/08 09:13:34;;;;;;;23.10;12.93;;;;;;;;;;5030541;28;20043;-69
2021/12/08 09:16:04;;;;;;;22.25;12.60;;;;;;;;;;5030531;28;20028;-69
2021/12/08 09:18:45;;;;;;;21.75;12.57;;;;;;;;;;5031653;28;20053;-69
2021/12/08 09:21:24;;;;;;;19.17;12.55;;;;;;;;;;5030569;28;20029;-70
2021/12/08 09:23:57;;;;;;;21.27;12.55;;;;;;;;;;5031537;28;20021;-69
2021/12/08 09:26:24;;;;;;;22.00;13.57;;;;;;;;;;5031598;28;20041;-68
2021/12/08 09:28:56;;;;;;;23.42;12.77;;;;;;;;;;5031627;28;20033;-67
2021/12/08 09:31:31;;;;;;;18.48;11.48;;;;;;;;;;5031231;28;20049;-68
2021/12/08 09:34:09;;;;;;;23.58;13.20;;;;;;;;;;5031420;28;20033;-70
2021/12/08 09:36:42;;;;;;;19.73;12.05;;;;;;;;;;5031664;28;20030;-71
2021/12/08 09:39:20;;;;;;;18.13;11.85;;;;;;;;;;5031652;28;20533;-71
2021/12/08 09:41:48;;;;;;;22.20;12.30;;;;;;;;;;5029858;28;20112;-71
2021/12/08 09:44:17;;;;;;;23.33;13.25;;;;;;;;;;5030998;28;20029;-71
2021/12/08 09:46:44;;;;;;;20.17;13.02;;;;;;;;;;5026736;28;20029;-71
2021/12/08 09:49:11;;;;;;;21.25;12.15;;;;;;;;;;5030314;28;20025;-70
2021/12/08 09:51:38;;;;;;;21.02;12.00;;;;;;;;;;5031170;28;20097;-70
2021/12/08 09:54:04;;;;;;;23.25;13.95;;;;;;;;;;5031355;28;20126;-70
2021/12/08 09:56:30;;;;;;;17.20;11.35;;;;;;;;;;5030820;28;20513;-71
2021/12/08 09:58:57;;;;;;;22.85;12.00;;;;;;;;;;5030248;28;20060;-71
2021/12/08 10:01:24;;;;;;;21.95;12.32;;;;;;;;;;5031428;28;20060;-71
2021/12/08 10:03:51;;;;;;;20.00;11.50;;;;;;;;;;5031384;28;20117;-71
2021/12/08 10:06:19;;;;;;;24.08;12.60;;;;;;;;;;5030032;28;20026;-70
2021/12/08 10:08:46;;;;;;;22.65;13.05;;;;;;;;;;5029933;28;20025;-70
2021/12/08 10:11:12;;;;;;;20.35;11.93;;;;;;;;;;5031326;28;20090;-71
2021/12/08 10:13:39;;;;;;;19.13;11.82;;;;;;;;;;5030976;28;20104;-70
2021/12/08 10:16:06;;;;;;;17.02;10.30;;;;;;;;;;5030890;28;20487;-70
2021/12/08 10:18:32;;;;;;;31.48;12.05;;;;;;;;;;5031044;28;20025;-69
2021/12/08 10:20:59;;;;;;;18.98;11.55;;;;;;;;;;5033101;28;20406;-69
2021/12/08 10:23:30;;;;;;;21.52;12.65;;;;;;;;;;5049819;28;20025;-69
2021/12/08 10:25:56;;;;;;;20.23;10.55;;;;;;;;;;5034887;28;20033;-70
2021/12/08 10:28:26;;;;;;;19.50;12.20;;;;;;;;;;5046604;28;20036;-70
2021/12/08 10:31:14;;;;;;;21.47;12.77;;;;;;;;;;5038839;28;20439;-70
2021/12/08 10:39:03;;;;;;;23.65;13.20;;;;;;;;;;5051655;28;20021;-67
2021/12/08 10:41:43;;;;;;;22.60;13.10;;;;;;;;;;5052508;28;20079;-69
2021/12/08 10:44:09;;;;;;;25.38;13.18;;;;;;;;;;5054310;28;20017;-68
2021/12/08 10:46:37;;;;;;;20.85;13.20;;;;;;;;;;5053644;28;20033;-71
2021/12/08 10:54:39;;;;;;;25.85;13.30;;;;;;;;;;5054130;28;19927;-69
2021/12/08 10:57:26;;;;;;;22.75;12.63;;;;;;;;;;5032974;28;20479;-69
2021/12/08 10:59:54;;;;;;;26.33;14.02;;;;;;;;;;5029096;28;20029;-69
2021/12/08 11:02:38;;;;;;;32.80;17.80;;;;;;;;;;5042796;28;20025;-70
2021/12/08 11:05:05;;;;;;;26.02;15.38;;;;;;;;;;5050361;28;20028;-69
2021/12/08 11:07:31;;;;;;;23.95;13.90;;;;;;;;;;5038600;28;20025;-69
2021/12/08 11:09:58;;;;;;;22.17;12.63;;;;;;;;;;5045861;28;20014;-69
2021/12/08 11:12:38;;;;;;;26.27;14.52;;;;;;;;;;5044696;28;20032;-69
2021/12/08 11:15:18;;;;;;;22.67;13.98;;;;;;;;;;5037340;28;20021;-69
2021/12/08 11:17:44;;;;;;;25.48;14.60;;;;;;;;;;5046182;28;20037;-70
2021/12/08 11:20:22;;;;;;;31.65;18.48;;;;;;;;;;5044351;28;20079;-69
2021/12/08 11:23:02;;;;;;;26.25;14.82;;;;;;;;;;5038133;28;20025;-69
2021/12/08 11:25:37;;;;;;;26.60;15.90;;;;;;;;;;5022755;28;20032;-69
2021/12/08 11:28:19;;;;;;;27.50;15.43;;;;;;;;;;5044608;28;20112;-69
2021/12/08 11:30:46;;;;;;;23.90;14.98;;;;;;;;;;5047714;28;20021;-69
2021/12/08 11:33:17;;;;;;;30.17;15.65;;;;;;;;;;5036530;28;20115;-69
2021/12/08 11:35:44;;;;;;;26.73;14.43;;;;;;;;;;5046945;28;20052;-69
2021/12/08 11:38:10;;;;;;;29.33;15.70;;;;;;;;;;5043770;28;20025;-69
2021/12/08 11:40:37;;;;;;;25.08;14.90;;;;;;;;;;5039707;28;20120;-69
2021/12/08 11:43:15;;;;;;;28.30;15.20;;;;;;;;;;5049884;28;20094;-69
2021/12/08 11:45:44;;;;;;;26.27;15.32;;;;;;;;;;5037835;28;20075;-69
2021/12/08 11:48:24;;;;;;;24.58;13.82;;;;;;;;;;5042281;28;20033;-68
2021/12/08 11:51:06;;;;;;;29.83;15.73;;;;;;;;;;5031735;28;20087;-68
2021/12/08 11:53:32;;;;;;;26.17;15.18;;;;;;;;;;5023136;28;20071;-68
2021/12/08 11:55:59;;;;;;;24.77;14.27;;;;;;;;;;5044438;28;20033;-69
2021/12/08 11:58:25;;;;;;;29.23;16.20;;;;;;;;;;5045014;28;20033;-68
2021/12/08 12:00:52;;;;;;;28.95;14.18;;;;;;;;;;5037460;28;20108;-68
2021/12/08 12:03:19;;;;;;;24.65;14.23;;;;;;;;;;5049345;28;20112;-68
2021/12/08 12:05:47;;;;;;;28.63;15.02;;;;;;;;;;5039736;28;20119;-69
2021/12/08 12:08:15;;;;;;;25.02;15.07;;;;;;;;;;5042417;28;20080;-69
2021/12/08 12:10:43;;;;;;;29.75;15.70;;;;;;;;;;5047109;28;20046;-69
2021/12/08 12:13:09;;;;;;;29.02;14.75;;;;;;;;;;5036217;28;20025;-69
2021/12/08 12:15:37;;;;;;;27.20;14.60;;;;;;;;;;5047329;28;20014;-69
2021/12/08 12:18:03;;;;;;;26.58;14.25;;;;;;;;;;5041589;28;20087;-69
2021/12/08 12:20:36;;;;;;;30.08;15.10;;;;;;;;;;5040117;28;20035;-68
2021/12/08 12:23:20;;;;;;;26.13;14.95;;;;;;;;;;5044310;28;20120;-70
2021/12/08 12:25:46;;;;;;;28.38;14.45;;;;;;;;;;5043272;28;20414;-69
2021/12/08 12:28:24;;;;;;;27.65;15.40;;;;;;;;;;5041353;28;20033;-70
2021/12/08 12:31:01;;;;;;;27.73;14.63;;;;;;;;;;5034644;28;20026;-68
2021/12/08 12:33:27;;;;;;;29.85;15.90;;;;;;;;;;5021170;28;20348;-69
2021/12/08 12:35:54;;;;;;;32.13;16.67;;;;;;;;;;5043696;28;20029;-69
2021/12/08 12:38:39;;;;;;;31.70;16.08;;;;;;;;;;5043768;28;20430;-69
2021/12/08 12:41:06;;;;;;;34.70;17.02;;;;;;;;;;5034045;28;20473;-69
2021/12/08 12:43:37;;;;;;;29.20;16.20;;;;;;;;;;5034554;28;20025;-69
2021/12/08 12:46:10;;;;;;;31.70;16.05;;;;;;;;;;5041160;28;20025;-70
2021/12/08 12:48:37;;;;;;;32.13;17.17;;;;;;;;;;5038138;28;20104;-71
2021/12/08 12:51:11;;;;;;;31.75;17.27;;;;;;;;;;5046338;28;20101;-69
2021/12/08 12:53:41;;;;;;;30.52;18.15;;;;;;;;;;5037066;28;20024;-69
2021/12/08 12:56:11;;;;;;;32.88;18.50;;;;;;;;;;5042283;28;20021;-68
2021/12/08 12:58:41;;;;;;;36.15;18.55;;;;;;;;;;5045834;28;20517;-69
2021/12/08 13:01:09;;;;;;;37.33;19.20;;;;;;;;;;5028038;28;20487;-68
2021/12/08 13:03:47;;;;;;;40.22;20.10;;;;;;;;;;5024390;28;20041;-66
2021/12/08 13:06:15;;;;;;;38.72;20.52;;;;;;;;;;5032742;28;20112;-67
2021/12/08 13:08:43;;;;;;;39.55;20.55;;;;;;;;;;5031960;28;20388;-66
2021/12/08 13:11:30;;;;;;;40.15;20.38;;;;;;;;;;5033930;28;20071;-68
2021/12/08 13:13:57;;;;;;;40.65;19.27;;;;;;;;;;5028047;28;20021;-68
2021/12/08 13:16:24;;;;;;;41.30;20.13;;;;;;;;;;5039652;28;20044;-69
2021/12/08 13:19:16;;;;;;;40.05;20.55;;;;;;;;;;5046991;28;20025;-68
2021/12/08 13:21:52;;;;;;;35.45;18.27;;;;;;;;;;5022554;28;20037;-67
2021/12/08 13:24:31;;;;;;;37.92;18.50;;;;;;;;;;5038429;28;20021;-67
2021/12/08 13:27:29;;;;;;;35.67;19.05;;;;;;;;;;5044882;28;20505;-68
2021/12/08 13:30:11;;;;;;;38.25;20.05;;;;;;;;;;5027970;28;20040;-68
2021/12/08 13:32:45;;;;;;;36.63;18.42;;;;;;;;;;5037472;28;20018;-68
2021/12/08 13:35:11;;;;;;;37.40;19.25;;;;;;;;;;5047388;28;20485;-68
2021/12/08 13:37:37;;;;;;;38.13;20.05;;;;;;;;;;5035995;28;20079;-68
2021/12/08 13:40:05;;;;;;;35.33;18.60;;;;;;;;;;5040874;28;20033;-68
2021/12/08 13:42:34;;;;;;;39.92;20.60;;;;;;;;;;5044435;28;20033;-67
2021/12/08 13:45:10;;;;;;;41.00;20.73;;;;;;;;;;5034895;28;20049;-68
2021/12/08 13:47:37;;;;;;;40.70;20.25;;;;;;;;;;5045788;28;20026;-69
2021/12/08 13:50:03;;;;;;;38.95;19.45;;;;;;;;;;5040384;28;20023;-68
2021/12/08 13:52:34;;;;;;;42.22;20.85;;;;;;;;;;5038521;28;20022;-70
2021/12/08 13:55:09;;;;;;;37.00;19.17;;;;;;;;;;5046424;28;20021;-72
2021/12/08 13:57:40;;;;;;;39.40;20.50;;;;;;;;;;5038589;28;20508;-70
2021/12/08 14:00:09;;;;;;;40.85;19.73;;;;;;;;;;5045904;28;20026;-70
2021/12/08 14:02:38;;;;;;;42.25;20.23;;;;;;;;;;5048817;28;20437;-71
2021/12/08 14:05:07;;;;;;;44.33;20.67;;;;;;;;;;5038785;28;20040;-70
2021/12/08 14:07:34;;;;;;;41.63;20.42;;;;;;;;;;5049775;28;20036;-70
2021/12/08 14:10:02;;;;;;;38.58;20.55;;;;;;;;;;5043758;28;20021;-70
2021/12/08 14:12:47;;;;;;;38.92;20.35;;;;;;;;;;5043043;28;20030;-69
2021/12/08 14:15:14;;;;;;;42.55;21.88;;;;;;;;;;5051389;28;20040;-69
2021/12/08 14:17:40;;;;;;;41.20;20.13;;;;;;;;;;5040795;28;20474;-69
2021/12/08 14:20:23;;;;;;;36.47;19.50;;;;;;;;;;5045028;28;20032;-69
2021/12/08 14:22:49;;;;;;;40.28;20.27;;;;;;;;;;5050226;28;20444;-70
2021/12/08 14:25:15;;;;;;;42.97;20.65;;;;;;;;;;5037988;28;20026;-70
2021/12/08 14:27:41;;;;;;;41.88;20.70;;;;;;;;;;5048247;28;20021;-69
2021/12/08 14:30:08;;;;;;;38.03;19.17;;;;;;;;;;5044752;28;20017;-68
2021/12/08 14:32:33;;;;;;;44.88;22.08;;;;;;;;;;5041309;28;20391;-69
2021/12/08 14:35:07;;;;;;;39.05;20.80;;;;;;;;;;5050974;28;20017;-69
2021/12/08 14:37:33;;;;;;;40.60;19.80;;;;;;;;;;5039397;28;20025;-69
2021/12/08 14:40:00;;;;;;;47.40;21.98;;;;;;;;;;5045848;28;20033;-70
2021/12/08 14:42:30;;;;;;;40.90;20.65;;;;;;;;;;5046796;28;20486;-69
2021/12/08 14:45:03;;;;;;;46.03;21.63;;;;;;;;;;5037901;28;20025;-70
2021/12/08 14:47:32;;;;;;;45.58;22.48;;;;;;;;;;5023834;28;20112;-69
2021/12/08 14:50:01;;;;;;;40.17;21.30;;;;;;;;;;5046004;28;20399;-69
2021/12/08 14:52:32;;;;;;;44.72;21.40;;;;;;;;;;5046565;28;20017;-69
2021/12/08 14:54:59;;;;;;;39.75;20.58;;;;;;;;;;5036071;28;20039;-70
2021/12/08 14:57:26;;;;;;;42.53;20.15;;;;;;;;;;5065645;22;20517;-71
2021/12/08 15:00:06;;;;;;;43.38;21.85;;;;;;;;;;5044778;28;20036;-69
2021/12/08 15:02:32;;;;;;;41.60;20.02;;;;;;;;;;5046268;28;20113;-70
2021/12/08 15:04:59;;;;;;;45.50;21.63;;;;;;;;;;5037203;28;20558;-70
2021/12/08 15:07:26;;;;;;;48.72;23.05;;;;;;;;;;5049986;28;20084;-68
2021/12/08 15:10:11;;;;;;;44.88;21.67;;;;;;;;;;5040444;28;20083;-69
2021/12/08 15:12:38;;;;;;;48.50;21.05;;;;;;;;;;5040384;28;20072;-69
2021/12/08 15:15:11;;;;;;;52.80;23.17;;;;;;;;;;5050270;28;20067;-70
2021/12/08 15:17:37;;;;;;;48.28;22.50;;;;;;;;;;5039524;28;20028;-69
2021/12/08 15:20:04;;;;;;;46.22;21.33;;;;;;;;;;5044629;28;20044;-67
2021/12/08 15:22:38;;;;;;;43.08;21.25;;;;;;;;;;5047078;28;20036;-68
2021/12/08 15:25:08;;;;;;;44.25;21.30;;;;;;;;;;5037100;28;20466;-68